Time;durP1;ratioP1;P1;durP2;ratioP2;P2;SDS_P1;SDS_P2;PMS_P1;PMS_P2;Temp;Humidity;BMP_temperature;BMP_pressure;BME280_temperature;BME280_humidity;BME280_pressure;Samples;Min_cycle;Max_cycle;Signal;HPM_P1;HPM_P2
2022/11/04 00:00:24;;;;;;;20.33;11.35;;;;;;;;;;2115351;28;20048;-44
2022/11/04 00:01:31;;;;;;;23.45;12.15;;;;;;;;;;2115138;28;20051;-45
2022/11/04 00:02:32;;;;;;;21.58;12.80;;;;;;;;;;2115007;28;20043;-45
2022/11/04 00:03:33;;;;;;;21.20;10.83;;;;;;;;;;2115042;28;20126;-44
2022/11/04 00:04:34;;;;;;;22.30;12.68;;;;;;;;;;2115185;28;20055;-44
2022/11/04 00:05:35;;;;;;;22.63;12.10;;;;;;;;;;2115010;28;20051;-44
2022/11/04 00:06:37;;;;;;;18.98;10.98;;;;;;;;;;2115132;28;20126;-44
2022/11/04 00:09:00;;;;;;;22.25;12.15;;;;;;;;;;2088882;28;19968;-45
2022/11/04 00:10:01;;;;;;;17.27;10.95;;;;;;;;;;2114917;28;20385;-44
2022/11/04 00:12:24;;;;;;;19.15;11.68;;;;;;;;;;2116146;28;20407;-45
2022/11/04 00:13:27;;;;;;;20.85;11.25;;;;;;;;;;2123777;28;20135;-46
2022/11/04 00:14:29;;;;;;;21.08;11.25;;;;;;;;;;2123412;28;20074;-44
2022/11/04 00:18:08;;;;;;;17.65;11.15;;;;;;;;;;2123529;28;20054;-44
2022/11/04 00:19:09;;;;;;;17.97;11.33;;;;;;;;;;2123725;28;20046;-41
2022/11/04 00:29:28;;;;;;;18.40;10.68;;;;;;;;;;2122969;27;20047;-41
2022/11/04 00:30:30;;;;;;;18.15;10.60;;;;;;;;;;2122995;28;20172;-41
2022/11/04 00:34:15;;;;;;;19.15;10.75;;;;;;;;;;2092887;28;20055;-41
2022/11/04 00:35:16;;;;;;;18.75;11.48;;;;;;;;;;2123571;28;20047;-42
2022/11/04 00:36:18;;;;;;;18.80;12.05;;;;;;;;;;2123223;28;20051;-41
2022/11/04 00:37:19;;;;;;;17.10;10.27;;;;;;;;;;2123413;28;20047;-41
2022/11/04 00:38:20;;;;;;;19.35;11.02;;;;;;;;;;2123445;28;20547;-41
2022/11/04 00:39:21;;;;;;;18.80;11.52;;;;;;;;;;2123244;28;20051;-41
2022/11/04 00:40:22;;;;;;;22.27;11.70;;;;;;;;;;2123258;28;20096;-41
2022/11/04 00:41:26;;;;;;;24.73;11.25;;;;;;;;;;2123232;28;20047;-41
2022/11/04 00:42:29;;;;;;;22.42;11.73;;;;;;;;;;2123653;28;20051;-43
2022/11/04 00:43:30;;;;;;;17.90;10.30;;;;;;;;;;2123268;28;20055;-41
2022/11/04 00:44:31;;;;;;;16.92;9.85;;;;;;;;;;2123322;28;20108;-41
2022/11/04 00:45:32;;;;;;;18.77;10.57;;;;;;;;;;2123284;28;20458;-41
2022/11/04 00:46:33;;;;;;;20.05;11.13;;;;;;;;;;2123314;28;20047;-45
2022/11/04 00:47:34;;;;;;;18.02;10.45;;;;;;;;;;2123229;28;20484;-44
2022/11/04 00:48:35;;;;;;;18.83;10.45;;;;;;;;;;2123198;28;20774;-44
2022/11/04 00:49:36;;;;;;;18.07;10.20;;;;;;;;;;2123269;28;20054;-44
2022/11/04 00:50:38;;;;;;;23.35;10.43;;;;;;;;;;2123349;28;20100;-44
2022/11/04 00:51:39;;;;;;;16.58;10.55;;;;;;;;;;2123143;28;20043;-44
2022/11/04 00:52:40;;;;;;;18.58;10.57;;;;;;;;;;2123188;28;20055;-45
2022/11/04 00:53:42;;;;;;;20.97;10.60;;;;;;;;;;2123181;28;20399;-44
2022/11/04 00:54:42;;;;;;;;;;;;;;;;;;2123727;28;20093;-44
2022/11/04 00:55:44;;;;;;;19.58;10.80;;;;;;;;;;2123440;28;20014;-46
2022/11/04 00:56:44;;;;;;;21.42;10.57;;;;;;;;;;2122975;28;20399;-47
2022/11/04 00:57:46;;;;;;;15.57;10.50;;;;;;;;;;2123339;28;20104;-44
2022/11/04 00:58:48;;;;;;;17.60;10.25;;;;;;;;;;2123232;28;20047;-45
2022/11/04 00:59:49;;;;;;;18.90;11.32;;;;;;;;;;2123291;28;20047;-44
2022/11/04 01:00:50;;;;;;;20.20;11.13;;;;;;;;;;2123157;28;20047;-45
2022/11/04 01:01:52;;;;;;;21.40;11.07;;;;;;;;;;2122959;28;20044;-43
2022/11/04 01:02:53;;;;;;;17.75;10.48;;;;;;;;;;2123230;28;20043;-43
2022/11/04 01:03:55;;;;;;;19.52;9.75;;;;;;;;;;2123092;28;20104;-45
2022/11/04 01:04:56;;;;;;;20.27;10.57;;;;;;;;;;2123241;28;20043;-44
2022/11/04 01:05:57;;;;;;;19.17;10.60;;;;;;;;;;2123179;28;20047;-44
2022/11/04 01:06:58;;;;;;;20.52;11.32;;;;;;;;;;2123262;28;20043;-45
2022/11/04 01:07:59;;;;;;;18.40;10.33;;;;;;;;;;2123102;28;20073;-43
2022/11/04 01:09:02;;;;;;;16.50;9.50;;;;;;;;;;2117992;28;20043;-44
2022/11/04 01:10:04;;;;;;;18.55;10.25;;;;;;;;;;2114600;28;20044;-44
2022/11/04 01:11:05;;;;;;;19.65;10.32;;;;;;;;;;2114698;28;20040;-44
2022/11/04 01:12:06;;;;;;;18.77;9.93;;;;;;;;;;2114620;28;20039;-44
2022/11/04 01:13:07;;;;;;;19.65;11.07;;;;;;;;;;2114520;28;20051;-44
2022/11/04 01:14:09;;;;;;;22.50;11.55;;;;;;;;;;2114690;28;20085;-44
2022/11/04 01:15:10;;;;;;;20.42;10.25;;;;;;;;;;2114528;28;20048;-44
2022/11/04 01:16:11;;;;;;;18.10;11.57;;;;;;;;;;2114322;28;20055;-45
2022/11/04 01:17:12;;;;;;;18.55;10.48;;;;;;;;;;2114446;28;20051;-44
2022/11/04 01:18:13;;;;;;;19.05;10.25;;;;;;;;;;2114646;28;20097;-43
2022/11/04 01:19:14;;;;;;;20.58;10.02;;;;;;;;;;2114803;28;20052;-43
2022/11/04 01:20:16;;;;;;;22.00;10.15;;;;;;;;;;2114512;28;20510;-44
2022/11/04 01:21:17;;;;;;;16.00;9.93;;;;;;;;;;2114542;28;20047;-43
2022/11/04 01:22:18;;;;;;;25.73;10.83;;;;;;;;;;2114617;28;20043;-43
2022/11/04 01:23:19;;;;;;;15.68;10.00;;;;;;;;;;2114611;28;20058;-43
2022/11/04 01:24:21;;;;;;;14.02;9.30;;;;;;;;;;2114532;28;20052;-43
2022/11/04 01:25:22;;;;;;;22.77;11.82;;;;;;;;;;2114678;28;20104;-44
2022/11/04 01:26:24;;;;;;;19.77;10.43;;;;;;;;;;2114442;28;20557;-43
2022/11/04 01:27:25;;;;;;;20.63;10.98;;;;;;;;;;2114610;28;20052;-44
2022/11/04 01:28:26;;;;;;;17.95;11.05;;;;;;;;;;2114458;28;20059;-44
2022/11/04 01:29:27;;;;;;;17.47;10.13;;;;;;;;;;2114877;28;20055;-40
2022/11/04 01:30:28;;;;;;;19.70;10.80;;;;;;;;;;2114480;28;20062;-40
2022/11/04 01:31:30;;;;;;;19.98;10.15;;;;;;;;;;2114777;28;20050;-41
2022/11/04 01:32:31;;;;;;;16.45;8.98;;;;;;;;;;2114555;28;20052;-45
2022/11/04 01:33:32;;;;;;;22.25;10.55;;;;;;;;;;2114570;28;20054;-43
2022/11/04 01:34:34;;;;;;;15.80;10.32;;;;;;;;;;2114440;28;20057;-43
2022/11/04 01:35:43;;;;;;;17.77;9.95;;;;;;;;;;2114482;28;20055;-43
2022/11/04 01:36:44;;;;;;;19.48;10.25;;;;;;;;;;2114300;28;20435;-43
2022/11/04 01:37:45;;;;;;;17.17;9.50;;;;;;;;;;2114587;28;20054;-41
2022/11/04 01:38:46;;;;;;;19.33;9.80;;;;;;;;;;2114623;28;20056;-41
2022/11/04 01:39:48;;;;;;;17.52;10.65;;;;;;;;;;2114534;28;20039;-41
2022/11/04 01:40:49;;;;;;;24.23;10.57;;;;;;;;;;2114317;28;20047;-41
2022/11/04 01:41:50;;;;;;;20.13;10.00;;;;;;;;;;2114374;28;20638;-41
2022/11/04 01:42:51;;;;;;;23.88;10.40;;;;;;;;;;2114558;28;20055;-41
2022/11/04 01:43:53;;;;;;;15.77;9.73;;;;;;;;;;2114390;28;20047;-41
2022/11/04 01:44:56;;;;;;;17.35;9.93;;;;;;;;;;2114486;28;20043;-41
2022/11/04 01:45:58;;;;;;;20.17;10.30;;;;;;;;;;2114437;28;20047;-41
2022/11/04 01:46:59;;;;;;;25.25;10.90;;;;;;;;;;2114236;28;20092;-40
2022/11/04 01:48:01;;;;;;;21.60;9.68;;;;;;;;;;2114467;28;20055;-40
2022/11/04 01:49:05;;;;;;;15.63;10.10;;;;;;;;;;2114301;28;20476;-40
2022/11/04 01:50:08;;;;;;;18.30;9.43;;;;;;;;;;2114314;28;20557;-41
2022/11/04 01:51:09;;;;;;;18.27;10.10;;;;;;;;;;2114343;28;20035;-41
2022/11/04 01:52:12;;;;;;;22.05;9.15;;;;;;;;;;2114265;28;20134;-41
2022/11/04 01:53:15;;;;;;;14.90;9.55;;;;;;;;;;2114346;28;20047;-40
2022/11/04 01:54:17;;;;;;;21.00;9.68;;;;;;;;;;2114463;28;20043;-41
2022/11/04 01:55:20;;;;;;;19.65;9.90;;;;;;;;;;2114605;28;20052;-41
2022/11/04 01:56:21;;;;;;;18.27;9.95;;;;;;;;;;2114316;28;20054;-40
2022/11/04 01:57:25;;;;;;;13.88;8.85;;;;;;;;;;2114554;28;20047;-41
2022/11/04 01:58:27;;;;;;;18.02;10.60;;;;;;;;;;2114397;28;20494;-41
2022/11/04 01:59:30;;;;;;;22.50;10.55;;;;;;;;;;2114391;28;20047;-41
2022/11/04 02:00:32;;;;;;;16.08;9.10;;;;;;;;;;2114457;28;20051;-41
2022/11/04 02:01:33;;;;;;;14.50;9.60;;;;;;;;;;2114442;28;20483;-41
2022/11/04 02:02:36;;;;;;;17.05;9.90;;;;;;;;;;2114247;28;20039;-41
2022/11/04 02:03:38;;;;;;;16.70;9.30;;;;;;;;;;2114395;28;20054;-41
2022/11/04 02:04:39;;;;;;;19.05;9.73;;;;;;;;;;2114399;28;20403;-44
2022/11/04 02:05:41;;;;;;;15.50;9.57;;;;;;;;;;2114180;28;20047;-41
2022/11/04 02:06:42;;;;;;;19.90;10.20;;;;;;;;;;2114257;28;20048;-41
2022/11/04 02:07:43;;;;;;;16.00;9.47;;;;;;;;;;2114335;28;20104;-41
2022/11/04 02:08:44;;;;;;;14.60;9.55;;;;;;;;;;2114276;28;20052;-41
2022/11/04 02:09:45;;;;;;;16.75;10.07;;;;;;;;;;2114383;28;20047;-41
2022/11/04 02:10:49;;;;;;;11.77;8.63;;;;;;;;;;2114368;28;20088;-41
2022/11/04 02:13:08;;;;;;;13.88;8.70;;;;;;;;;;2096440;28;20529;-41
2022/11/04 02:14:10;;;;;;;12.90;8.48;;;;;;;;;;2110993;28;20052;-41
2022/11/04 02:15:11;;;;;;;21.20;10.23;;;;;;;;;;2114333;28;20052;-41
2022/11/04 02:16:16;;;;;;;11.88;8.48;;;;;;;;;;2114142;28;20108;-44
2022/11/04 02:17:26;;;;;;;17.70;9.38;;;;;;;;;;2114173;28;20057;-45
2022/11/04 02:18:35;;;;;;;16.35;9.57;;;;;;;;;;2114247;28;20439;-43
2022/11/04 02:19:47;;;;;;;14.73;8.40;;;;;;;;;;2114339;28;20048;-45
2022/11/04 02:21:13;;;;;;;16.13;8.57;;;;;;;;;;2114351;28;20102;-43
2022/11/04 02:22:34;;;;;;;14.27;8.25;;;;;;;;;;2088797;28;20066;-44
2022/11/04 02:23:46;;;;;;;21.77;9.60;;;;;;;;;;2105911;28;20136;-41
2022/11/04 02:24:59;;;;;;;18.70;9.73;;;;;;;;;;2114157;28;20484;-41
2022/11/04 02:26:18;;;;;;;18.60;9.50;;;;;;;;;;2114478;28;20048;-43
2022/11/04 02:27:24;;;;;;;16.88;9.45;;;;;;;;;;2114157;28;20051;-43
2022/11/04 02:28:32;;;;;;;15.27;9.20;;;;;;;;;;2114505;28;20056;-44
2022/11/04 02:29:45;;;;;;;16.65;9.15;;;;;;;;;;2114347;28;20047;-44
2022/11/04 02:30:49;;;;;;;15.77;9.65;;;;;;;;;;2114326;28;20114;-44
2022/11/04 02:31:52;;;;;;;15.18;9.50;;;;;;;;;;2114051;28;20101;-44
2022/11/04 02:33:05;;;;;;;17.45;9.43;;;;;;;;;;2114128;28;20441;-43
2022/11/04 02:34:11;;;;;;;15.35;8.65;;;;;;;;;;2114117;28;20043;-44
2022/11/04 02:35:16;;;;;;;15.80;8.82;;;;;;;;;;2114174;28;20047;-44
2022/11/04 02:36:21;;;;;;;16.02;9.38;;;;;;;;;;2114046;28;20040;-43
2022/11/04 02:37:27;;;;;;;17.20;9.90;;;;;;;;;;2114051;28;20116;-45
2022/11/04 02:38:30;;;;;;;19.70;9.68;;;;;;;;;;2114114;28;20054;-44
2022/11/04 02:39:34;;;;;;;14.25;8.63;;;;;;;;;;2114099;28;20179;-43
2022/11/04 02:40:38;;;;;;;17.45;9.77;;;;;;;;;;2114035;28;20093;-43
2022/11/04 02:41:41;;;;;;;16.77;9.18;;;;;;;;;;2114022;28;20080;-45
2022/11/04 02:42:47;;;;;;;16.13;8.85;;;;;;;;;;2114147;28;20047;-45
2022/11/04 02:43:52;;;;;;;18.70;9.52;;;;;;;;;;2114039;28;20100;-43
2022/11/04 02:44:58;;;;;;;17.42;9.13;;;;;;;;;;2114194;28;20100;-43
2022/11/04 02:46:02;;;;;;;16.38;8.85;;;;;;;;;;2114270;28;20040;-44
2022/11/04 02:47:05;;;;;;;15.77;9.23;;;;;;;;;;2113891;28;20403;-43
2022/11/04 02:48:08;;;;;;;19.02;8.40;;;;;;;;;;2114131;28;20048;-43
2022/11/04 02:49:11;;;;;;;16.33;9.70;;;;;;;;;;2114111;28;20054;-43
2022/11/04 02:50:16;;;;;;;20.10;9.75;;;;;;;;;;2114044;28;20403;-43
2022/11/04 02:51:21;;;;;;;19.08;9.80;;;;;;;;;;2113742;28;20044;-43
2022/11/04 02:52:25;;;;;;;19.98;9.73;;;;;;;;;;2114129;28;20051;-43
2022/11/04 02:53:30;;;;;;;14.35;9.15;;;;;;;;;;2114730;28;20415;-43
2022/11/04 02:54:35;;;;;;;18.88;8.55;;;;;;;;;;2115493;28;20432;-44
2022/11/04 02:55:38;;;;;;;22.33;9.93;;;;;;;;;;2115448;28;20058;-43
2022/11/04 02:56:42;;;;;;;17.95;8.98;;;;;;;;;;2115460;28;20047;-41
2022/11/04 02:57:45;;;;;;;20.83;8.75;;;;;;;;;;2115605;28;20048;-41
2022/11/04 02:58:50;;;;;;;16.02;8.93;;;;;;;;;;2115413;28;20040;-41
2022/11/04 02:59:54;;;;;;;19.08;8.68;;;;;;;;;;2115617;28;20051;-41
2022/11/04 03:00:57;;;;;;;16.85;9.10;;;;;;;;;;2115344;28;20070;-41
2022/11/04 03:02:00;;;;;;;16.63;8.93;;;;;;;;;;2115436;28;20046;-41
2022/11/04 03:03:04;;;;;;;17.17;9.07;;;;;;;;;;2115441;28;20040;-41
2022/11/04 03:04:09;;;;;;;13.20;9.20;;;;;;;;;;2115489;28;20404;-41
2022/11/04 03:05:12;;;;;;;16.08;10.07;;;;;;;;;;2115531;28;20062;-41
2022/11/04 03:06:14;;;;;;;19.63;9.10;;;;;;;;;;2115280;28;20130;-41
2022/11/04 03:07:15;;;;;;;;;;;;;;;;;;2115777;28;20113;-41
2022/11/04 03:08:18;;;;;;;16.08;9.63;;;;;;;;;;2115441;28;19934;-41
2022/11/04 03:09:21;;;;;;;16.17;9.63;;;;;;;;;;2115502;28;20097;-41
2022/11/04 03:10:25;;;;;;;16.60;9.63;;;;;;;;;;2115393;28;20050;-41
2022/11/04 03:11:26;;;;;;;15.23;9.68;;;;;;;;;;2115332;28;20052;-41
2022/11/04 03:12:29;;;;;;;20.40;10.27;;;;;;;;;;2115505;28;20051;-41
2022/11/04 03:13:33;;;;;;;19.98;10.20;;;;;;;;;;2115452;28;20059;-41
2022/11/04 03:14:35;;;;;;;13.55;8.88;;;;;;;;;;2115305;28;20484;-41
2022/11/04 03:15:37;;;;;;;15.45;9.63;;;;;;;;;;2115476;28;20052;-41
2022/11/04 03:16:41;;;;;;;23.92;10.40;;;;;;;;;;2114965;28;20535;-41
2022/11/04 03:17:45;;;;;;;17.30;10.05;;;;;;;;;;2115412;28;20097;-41
2022/11/04 03:18:53;;;;;;;17.00;10.35;;;;;;;;;;2115233;28;20052;-41
2022/11/04 03:19:56;;;;;;;19.30;10.13;;;;;;;;;;2115451;28;20039;-41
2022/11/04 03:20:58;;;;;;;23.08;10.00;;;;;;;;;;2115283;28;20044;-41
2022/11/04 03:22:02;;;;;;;15.70;9.02;;;;;;;;;;2115208;28;20051;-41
2022/11/04 03:23:03;;;;;;;16.30;9.38;;;;;;;;;;2115327;28;20039;-41
2022/11/04 03:24:04;;;;;;;18.85;9.23;;;;;;;;;;2115268;28;20047;-41
2022/11/04 03:25:07;;;;;;;18.20;10.48;;;;;;;;;;2115375;28;20050;-41
2022/11/04 03:26:09;;;;;;;14.82;8.77;;;;;;;;;;2115405;28;20047;-41
2022/11/04 03:27:15;;;;;;;21.77;10.52;;;;;;;;;;2115444;28;20489;-41
2022/11/04 03:28:23;;;;;;;15.05;9.65;;;;;;;;;;2115667;28;20049;-41
2022/11/04 03:29:26;;;;;;;15.23;9.45;;;;;;;;;;2115491;28;20047;-41
2022/11/04 03:30:31;;;;;;;16.42;9.23;;;;;;;;;;2115532;28;20051;-41
2022/11/04 03:31:39;;;;;;;14.73;9.02;;;;;;;;;;2115305;28;20048;-41
2022/11/04 03:32:43;;;;;;;17.02;9.00;;;;;;;;;;2115234;28;20052;-41
2022/11/04 03:33:46;;;;;;;16.15;9.60;;;;;;;;;;2115532;28;20055;-44
2022/11/04 03:34:47;;;;;;;16.73;9.85;;;;;;;;;;2115251;28;20039;-44
2022/11/04 03:35:49;;;;;;;21.70;10.27;;;;;;;;;;2115369;28;20044;-43
2022/11/04 03:36:49;;;;;;;20.27;9.98;;;;;;;;;;2115092;28;20048;-44
2022/11/04 03:37:51;;;;;;;18.63;9.50;;;;;;;;;;2115431;28;20548;-44
2022/11/04 03:38:52;;;;;;;16.60;10.27;;;;;;;;;;2115113;28;20827;-45
2022/11/04 03:39:53;;;;;;;18.10;9.27;;;;;;;;;;2115184;28;20381;-45
2022/11/04 03:40:56;;;;;;;16.42;8.95;;;;;;;;;;2115157;28;20040;-44
2022/11/04 03:41:58;;;;;;;15.63;9.00;;;;;;;;;;2115202;28;20055;-43
2022/11/04 03:43:02;;;;;;;15.57;9.07;;;;;;;;;;2115152;28;20055;-44
2022/11/04 03:44:03;;;;;;;16.50;9.02;;;;;;;;;;2115332;28;20116;-44
2022/11/04 03:45:05;;;;;;;23.17;9.95;;;;;;;;;;2115562;28;20047;-41
2022/11/04 03:46:06;;;;;;;16.20;9.07;;;;;;;;;;2115144;28;20051;-41
2022/11/04 03:47:07;;;;;;;16.75;8.80;;;;;;;;;;2115194;28;20044;-41
2022/11/04 03:48:09;;;;;;;19.30;10.20;;;;;;;;;;2115206;28;20043;-41
2022/11/04 03:49:10;;;;;;;15.88;9.25;;;;;;;;;;2115275;28;20065;-41
2022/11/04 03:50:15;;;;;;;19.33;9.07;;;;;;;;;;2115146;28;20040;-41
2022/11/04 03:51:15;;;;;;;21.02;9.57;;;;;;;;;;2115141;28;20051;-41
2022/11/04 03:52:17;;;;;;;24.23;9.83;;;;;;;;;;2115296;28;20062;-41
2022/11/04 03:53:20;;;;;;;24.17;9.88;;;;;;;;;;2115064;28;20052;-41
2022/11/04 03:54:21;;;;;;;15.43;8.80;;;;;;;;;;2115190;28;20075;-41
2022/11/04 03:55:26;;;;;;;17.67;10.45;;;;;;;;;;2115096;28;20048;-41
2022/11/04 03:56:33;;;;;;;19.77;10.25;;;;;;;;;;2115052;28;20313;-41
2022/11/04 03:57:38;;;;;;;15.85;9.07;;;;;;;;;;2114836;28;20044;-41
2022/11/04 03:58:43;;;;;;;22.17;9.75;;;;;;;;;;2115296;28;20044;-41
2022/11/04 03:59:50;;;;;;;12.57;8.98;;;;;;;;;;2115429;28;20051;-43
2022/11/04 04:00:56;;;;;;;17.77;9.38;;;;;;;;;;2115303;28;20074;-44
2022/11/04 04:02:02;;;;;;;18.30;10.30;;;;;;;;;;2115411;28;20067;-43
2022/11/04 04:03:06;;;;;;;19.55;9.88;;;;;;;;;;2123559;28;20404;-43
2022/11/04 04:04:13;;;;;;;14.90;9.25;;;;;;;;;;2123378;27;20050;-45
2022/11/04 04:05:19;;;;;;;20.98;9.88;;;;;;;;;;2123516;28;20488;-43
2022/11/04 04:06:23;;;;;;;20.02;9.75;;;;;;;;;;2123407;28;20438;-43
2022/11/04 04:07:28;;;;;;;16.75;8.98;;;;;;;;;;2123578;28;20047;-44
2022/11/04 04:08:34;;;;;;;19.48;9.18;;;;;;;;;;2123484;28;20134;-44
2022/11/04 04:09:38;;;;;;;17.98;9.13;;;;;;;;;;2123675;28;20079;-43
2022/11/04 04:10:41;;;;;;;17.63;9.60;;;;;;;;;;2123557;28;20077;-44
2022/11/04 04:11:44;;;;;;;16.23;9.05;;;;;;;;;;2123687;28;20051;-44
2022/11/04 04:12:46;;;;;;;16.80;9.20;;;;;;;;;;2123505;28;20054;-44
2022/11/04 04:13:52;;;;;;;16.65;9.15;;;;;;;;;;2123576;28;20050;-44
2022/11/04 04:14:55;;;;;;;17.25;8.88;;;;;;;;;;2123406;28;20096;-44
2022/11/04 04:15:59;;;;;;;18.73;9.30;;;;;;;;;;2123240;28;20051;-44
2022/11/04 04:17:02;;;;;;;19.15;9.93;;;;;;;;;;2114837;28;20071;-44
2022/11/04 04:18:05;;;;;;;14.13;9.50;;;;;;;;;;2114886;28;20385;-43
2022/11/04 04:19:09;;;;;;;13.60;8.80;;;;;;;;;;2115258;28;20248;-43
2022/11/04 04:20:12;;;;;;;15.73;9.50;;;;;;;;;;2115051;28;20035;-43
2022/11/04 04:21:14;;;;;;;17.75;9.68;;;;;;;;;;2114977;28;20112;-44
2022/11/04 04:22:17;;;;;;;14.10;8.80;;;;;;;;;;2114987;28;20047;-44
2022/11/04 04:27:32;;;;;;;15.32;9.15;;;;;;;;;;2114970;28;20377;-43
2022/11/04 04:28:34;;;;;;;20.33;9.57;;;;;;;;;;2115101;28;20044;-41
2022/11/04 04:29:36;;;;;;;15.77;9.23;;;;;;;;;;2114996;28;20043;-41
2022/11/04 04:30:37;;;;;;;14.73;9.20;;;;;;;;;;2115065;28;20043;-46
2022/11/04 04:31:52;;;;;;;19.73;9.50;;;;;;;;;;2114986;28;20155;-44
2022/11/04 04:32:55;;;;;;;23.10;9.98;;;;;;;;;;2114805;28;20381;-44
2022/11/04 04:33:57;;;;;;;19.30;9.40;;;;;;;;;;2114938;28;20051;-44
2022/11/04 04:36:14;;;;;;;15.45;9.27;;;;;;;;;;2113969;28;20097;-45
2022/11/04 04:37:18;;;;;;;17.10;9.40;;;;;;;;;;2114873;28;20044;-45
2022/11/04 04:45:04;;;;;;;17.52;9.27;;;;;;;;;;2115095;28;20047;-44
2022/11/04 04:46:05;;;;;;;14.98;9.32;;;;;;;;;;2114905;28;20040;-41
2022/11/04 04:47:08;;;;;;;14.50;9.47;;;;;;;;;;2114808;28;20040;-41
2022/11/04 04:48:10;;;;;;;17.45;9.38;;;;;;;;;;2114844;28;20137;-41
2022/11/04 04:49:11;;;;;;;17.27;10.25;;;;;;;;;;2114659;28;20051;-41
2022/11/04 04:50:14;;;;;;;16.77;9.25;;;;;;;;;;2114862;28;20047;-41
2022/11/04 04:51:15;;;;;;;19.58;9.13;;;;;;;;;;2114596;28;20081;-41
2022/11/04 04:52:17;;;;;;;19.25;9.80;;;;;;;;;;2114869;28;20053;-41
2022/11/04 04:53:18;;;;;;;18.73;10.00;;;;;;;;;;2114922;28;20051;-46
2022/11/04 04:54:19;;;;;;;19.67;9.90;;;;;;;;;;2121962;28;20047;-45
2022/11/04 04:55:20;;;;;;;18.67;9.93;;;;;;;;;;2123343;28;20051;-44
2022/11/04 04:56:21;;;;;;;14.77;9.60;;;;;;;;;;2123083;28;20499;-43
2022/11/04 04:57:22;;;;;;;16.17;9.20;;;;;;;;;;2123102;28;20047;-45
2022/11/04 04:58:23;;;;;;;18.33;10.02;;;;;;;;;;2123270;28;20047;-44
2022/11/04 04:59:24;;;;;;;16.92;10.18;;;;;;;;;;2123142;28;20043;-44
2022/11/04 05:00:25;;;;;;;16.40;9.00;;;;;;;;;;2123136;28;20161;-44
2022/11/04 05:01:26;;;;;;;16.75;10.40;;;;;;;;;;2123230;28;20043;-44
2022/11/04 05:02:28;;;;;;;23.98;11.48;;;;;;;;;;2123118;28;20480;-44
2022/11/04 05:03:29;;;;;;;19.63;9.75;;;;;;;;;;2123238;28;20099;-44
2022/11/04 05:04:30;;;;;;;19.13;10.13;;;;;;;;;;2123377;28;20187;-47
2022/11/04 05:05:31;;;;;;;15.98;9.48;;;;;;;;;;2123239;28;20100;-46
2022/11/04 05:06:32;;;;;;;19.88;9.63;;;;;;;;;;2123195;28;20051;-41
2022/11/04 05:07:34;;;;;;;17.52;9.63;;;;;;;;;;2123337;28;20063;-44
2022/11/04 05:08:35;;;;;;;19.80;10.50;;;;;;;;;;2123080;28;20088;-44
2022/11/04 05:09:36;;;;;;;19.43;10.43;;;;;;;;;;2123119;28;20043;-43
2022/11/04 05:10:37;;;;;;;15.80;8.80;;;;;;;;;;2123097;28;20050;-44
2022/11/04 05:11:38;;;;;;;15.82;9.60;;;;;;;;;;2123014;28;20053;-44
2022/11/04 05:13:59;;;;;;;18.63;9.85;;;;;;;;;;2123097;28;20055;-44
2022/11/04 05:14:59;;;;;;;27.08;10.63;;;;;;;;;;2122990;28;20075;-44
2022/11/04 05:16:03;;;;;;;18.40;10.37;;;;;;;;;;2121567;27;20043;-44
2022/11/04 05:17:04;;;;;;;19.33;10.63;;;;;;;;;;2114358;28;20483;-44
2022/11/04 05:18:05;;;;;;;19.83;10.57;;;;;;;;;;2114571;28;20047;-44
2022/11/04 05:19:06;;;;;;;20.20;11.18;;;;;;;;;;2114674;28;20123;-45
2022/11/04 05:20:08;;;;;;;18.38;9.27;;;;;;;;;;2114590;28;20097;-45
2022/11/04 05:21:09;;;;;;;;;;;;;;;;;;2115298;28;20044;-44
2022/11/04 05:22:11;;;;;;;20.35;9.70;;;;;;;;;;2114589;28;19920;-44
2022/11/04 05:23:13;;;;;;;16.13;10.18;;;;;;;;;;2114611;28;20055;-44
2022/11/04 05:24:14;;;;;;;20.63;10.63;;;;;;;;;;2114710;28;20127;-41
2022/11/04 05:25:15;;;;;;;18.30;10.43;;;;;;;;;;2114655;28;20082;-42
2022/11/04 05:26:16;;;;;;;17.88;10.63;;;;;;;;;;2114747;28;20108;-43
2022/11/04 05:27:17;;;;;;;22.02;10.77;;;;;;;;;;2114908;28;20048;-45
2022/11/04 05:28:18;;;;;;;24.30;10.05;;;;;;;;;;2114553;28;20044;-45
2022/11/04 05:29:20;;;;;;;20.27;10.70;;;;;;;;;;2114434;28;20503;-44
2022/11/04 05:30:21;;;;;;;18.17;10.07;;;;;;;;;;2114638;28;20101;-43
2022/11/04 05:31:22;;;;;;;17.55;9.38;;;;;;;;;;2114482;28;20514;-45
2022/11/04 05:32:23;;;;;;;16.70;9.60;;;;;;;;;;2114778;28;20047;-44
2022/11/04 05:33:24;;;;;;;21.08;9.88;;;;;;;;;;2114411;28;20411;-44
2022/11/04 05:34:25;;;;;;;21.08;10.32;;;;;;;;;;2114620;28;20130;-44
2022/11/04 05:35:26;;;;;;;17.38;10.23;;;;;;;;;;2114560;28;20048;-43
2022/11/04 05:36:27;;;;;;;17.52;10.10;;;;;;;;;;2114322;28;20066;-44
2022/11/04 05:37:29;;;;;;;20.10;11.60;;;;;;;;;;2114479;28;20046;-45
2022/11/04 05:38:30;;;;;;;17.98;11.43;;;;;;;;;;2114537;28;20031;-44
2022/11/04 05:39:31;;;;;;;22.92;11.38;;;;;;;;;;2114366;28;20052;-44
2022/11/04 05:40:32;;;;;;;18.45;10.60;;;;;;;;;;2114428;28;20146;-44
2022/11/04 05:41:33;;;;;;;17.17;10.65;;;;;;;;;;2114453;28;20048;-44
2022/11/04 05:42:35;;;;;;;19.35;10.98;;;;;;;;;;2114657;28;20044;-42
2022/11/04 05:43:36;;;;;;;;;;;;;;;;;;2115004;28;20051;-41
2022/11/04 05:44:37;;;;;;;22.40;11.27;;;;;;;;;;2114660;28;19919;-44
2022/11/04 05:45:38;;;;;;;15.48;9.55;;;;;;;;;;2114366;28;20476;-44
2022/11/04 05:46:39;;;;;;;19.73;11.57;;;;;;;;;;2114450;28;20051;-44
2022/11/04 05:47:40;;;;;;;21.08;11.30;;;;;;;;;;2114760;28;20044;-45
2022/11/04 05:48:41;;;;;;;16.63;9.98;;;;;;;;;;2114559;28;20158;-44
2022/11/04 05:49:43;;;;;;;21.80;11.63;;;;;;;;;;2114124;28;20040;-44
2022/11/04 05:50:44;;;;;;;20.35;10.80;;;;;;;;;;2114369;28;20044;-45
2022/11/04 05:51:45;;;;;;;16.90;11.10;;;;;;;;;;2114355;28;20055;-44
2022/11/04 05:52:47;;;;;;;18.48;11.57;;;;;;;;;;2114459;28;20051;-45
2022/11/04 05:53:48;;;;;;;;;;;;;;;;;;2114828;28;20052;-44
2022/11/04 05:54:49;;;;;;;19.60;11.25;;;;;;;;;;2114471;28;19923;-44
2022/11/04 05:55:50;;;;;;;20.33;11.38;;;;;;;;;;2114308;28;20047;-44
2022/11/04 05:56:51;;;;;;;19.50;11.90;;;;;;;;;;2114304;28;20047;-44
2022/11/04 05:57:52;;;;;;;19.25;11.38;;;;;;;;;;2114185;28;20415;-45
2022/11/04 05:58:54;;;;;;;19.77;11.70;;;;;;;;;;2114321;28;20044;-46
2022/11/04 05:59:55;;;;;;;23.67;12.55;;;;;;;;;;2114506;28;20509;-44
2022/11/04 06:01:09;;;;;;;20.67;11.80;;;;;;;;;;2114306;28;20136;-45
2022/11/04 06:02:10;;;;;;;24.73;13.00;;;;;;;;;;2114531;28;20075;-42
2022/11/04 06:03:11;;;;;;;23.95;12.23;;;;;;;;;;2114524;28;20055;-45
2022/11/04 06:04:17;;;;;;;21.38;11.95;;;;;;;;;;2114372;28;20060;-44
2022/11/04 06:05:18;;;;;;;20.00;11.32;;;;;;;;;;2114295;28;20048;-44
2022/11/04 06:06:20;;;;;;;23.67;10.93;;;;;;;;;;2114194;28;20097;-45
2022/11/04 06:07:21;;;;;;;20.20;13.38;;;;;;;;;;2114259;28;20058;-45
2022/11/04 06:08:22;;;;;;;25.58;12.25;;;;;;;;;;2114330;28;20051;-45
2022/11/04 06:09:37;;;;;;;25.58;12.30;;;;;;;;;;2114488;28;20058;-41
2022/11/04 06:10:38;;;;;;;23.38;13.27;;;;;;;;;;2114272;28;20093;-41
2022/11/04 06:11:40;;;;;;;20.40;12.27;;;;;;;;;;2114454;28;20052;-42
2022/11/04 06:12:40;;;;;;;24.90;13.80;;;;;;;;;;2114245;28;20044;-41
2022/11/04 06:13:42;;;;;;;18.30;12.50;;;;;;;;;;2114516;28;20091;-42
2022/11/04 06:14:43;;;;;;;23.15;13.88;;;;;;;;;;2114152;28;20040;-41
2022/11/04 06:15:44;;;;;;;14.43;10.30;;;;;;;;;;2114151;28;20063;-42
2022/11/04 06:16:45;;;;;;;20.55;11.55;;;;;;;;;;2113992;28;20040;-41
2022/11/04 06:17:46;;;;;;;17.63;11.55;;;;;;;;;;2114488;28;20515;-42
2022/11/04 06:18:47;;;;;;;19.55;12.65;;;;;;;;;;2114238;28;20051;-41
2022/11/04 06:19:49;;;;;;;20.60;12.93;;;;;;;;;;2114251;28;20059;-41
2022/11/04 06:20:49;;;;;;;20.20;12.43;;;;;;;;;;2114265;28;20117;-41
2022/11/04 06:21:51;;;;;;;28.00;13.47;;;;;;;;;;2114326;28;20468;-44
2022/11/04 06:22:52;;;;;;;21.92;11.73;;;;;;;;;;2114185;28;20052;-43
2022/11/04 06:23:55;;;;;;;19.63;12.40;;;;;;;;;;2114464;28;20036;-41
2022/11/04 06:24:56;;;;;;;20.17;12.77;;;;;;;;;;2114206;28;20044;-41
2022/11/04 06:25:57;;;;;;;18.98;11.50;;;;;;;;;;2114163;28;20039;-41
2022/11/04 06:26:58;;;;;;;23.52;12.38;;;;;;;;;;2114186;28;20035;-41
2022/11/04 06:27:59;;;;;;;17.20;11.35;;;;;;;;;;2114315;28;20054;-41
2022/11/04 06:29:00;;;;;;;18.73;11.30;;;;;;;;;;2115917;28;20039;-41
2022/11/04 06:30:01;;;;;;;20.63;12.80;;;;;;;;;;2115808;28;20048;-43
2022/11/04 06:31:04;;;;;;;17.97;11.60;;;;;;;;;;2115791;28;20043;-44
2022/11/04 06:32:05;;;;;;;24.05;13.75;;;;;;;;;;2115697;28;20087;-44
2022/11/04 06:33:06;;;;;;;23.30;12.37;;;;;;;;;;2115758;28;20130;-43
2022/11/04 06:34:07;;;;;;;19.67;12.52;;;;;;;;;;2115663;28;20097;-43
2022/11/04 06:35:08;;;;;;;23.97;13.30;;;;;;;;;;2115654;28;20132;-44
2022/11/04 06:36:10;;;;;;;22.77;12.20;;;;;;;;;;2115709;28;20079;-43
2022/11/04 06:37:12;;;;;;;19.00;12.00;;;;;;;;;;2115443;28;20114;-43
2022/11/04 06:38:13;;;;;;;18.35;10.95;;;;;;;;;;2115935;28;20112;-43
2022/11/04 06:39:14;;;;;;;19.93;12.73;;;;;;;;;;2115839;28;20492;-42
2022/11/04 06:40:15;;;;;;;23.27;13.00;;;;;;;;;;2116242;28;20404;-40